sensor_id;sensor_type;location;lat;lon;timestamp;temperature;humidity
7686;DHT22;3885;51.474;-2.576;2024-01-07T00:01:22;3.40;75.90
7686;DHT22;3885;51.474;-2.576;2024-01-07T00:03:51;3.40;75.90
7686;DHT22;3885;51.474;-2.576;2024-01-07T00:06:18;3.30;75.90
7686;DHT22;3885;51.474;-2.576;2024-01-07T00:08:46;3.20;76.00
7686;DHT22;3885;51.474;-2.576;2024-01-07T00:11:14;3.10;76.00
7686;DHT22;3885;51.474;-2.576;2024-01-07T00:13:41;3.10;76.00
7686;DHT22;3885;51.474;-2.576;2024-01-07T00:18:35;3.00;76.00
7686;DHT22;3885;51.474;-2.576;2024-01-07T00:21:02;3.00;76.00
7686;DHT22;3885;51.474;-2.576;2024-01-07T00:23:29;3.00;76.00
7686;DHT22;3885;51.474;-2.576;2024-01-07T00:25:57;2.90;76.00
7686;DHT22;3885;51.474;-2.576;2024-01-07T00:30:51;2.70;76.10
7686;DHT22;3885;51.474;-2.576;2024-01-07T00:35:45;2.60;76.20
7686;DHT22;3885;51.474;-2.576;2024-01-07T00:40:40;2.50;76.20
7686;DHT22;3885;51.474;-2.576;2024-01-07T00:43:08;2.40;76.20
7686;DHT22;3885;51.474;-2.576;2024-01-07T00:48:03;2.30;76.20
7686;DHT22;3885;51.474;-2.576;2024-01-07T00:52:57;2.20;76.20
7686;DHT22;3885;51.474;-2.576;2024-01-07T00:57:51;2.10;76.20
7686;DHT22;3885;51.474;-2.576;2024-01-07T01:02:48;2.00;76.20
7686;DHT22;3885;51.474;-2.576;2024-01-07T01:05:15;2.00;76.20
7686;DHT22;3885;51.474;-2.576;2024-01-07T01:07:42;2.00;76.20
7686;DHT22;3885;51.474;-2.576;2024-01-07T01:12:36;1.90;76.20
7686;DHT22;3885;51.474;-2.576;2024-01-07T01:20:04;1.80;76.30
7686;DHT22;3885;51.474;-2.576;2024-01-07T01:22:31;1.70;76.30
7686;DHT22;3885;51.474;-2.576;2024-01-07T01:24:58;1.70;76.30
7686;DHT22;3885;51.474;-2.576;2024-01-07T01:29:52;1.60;76.30
7686;DHT22;3885;51.474;-2.576;2024-01-07T01:42:09;1.50;76.20
7686;DHT22;3885;51.474;-2.576;2024-01-07T01:44:36;1.50;76.20
7686;DHT22;3885;51.474;-2.576;2024-01-07T01:47:05;1.50;76.20
7686;DHT22;3885;51.474;-2.576;2024-01-07T01:54:30;1.30;76.30
7686;DHT22;3885;51.474;-2.576;2024-01-07T02:01:53;1.20;76.30
7686;DHT22;3885;51.474;-2.576;2024-01-07T02:04:20;1.20;76.30
7686;DHT22;3885;51.474;-2.576;2024-01-07T02:06:47;1.20;76.30
7686;DHT22;3885;51.474;-2.576;2024-01-07T02:09:16;1.20;76.30
7686;DHT22;3885;51.474;-2.576;2024-01-07T02:14:10;1.20;76.20
7686;DHT22;3885;51.474;-2.576;2024-01-07T02:21:32;1.30;76.20
7686;DHT22;3885;51.474;-2.576;2024-01-07T02:24:05;1.30;76.10
7686;DHT22;3885;51.474;-2.576;2024-01-07T02:28:59;1.50;76.00
7686;DHT22;3885;51.474;-2.576;2024-01-07T02:33:53;1.50;76.00
7686;DHT22;3885;51.474;-2.576;2024-01-07T02:38:47;1.70;75.90
7686;DHT22;3885;51.474;-2.576;2024-01-07T02:41:16;1.70;75.90
7686;DHT22;3885;51.474;-2.576;2024-01-07T02:46:10;1.80;75.80
7686;DHT22;3885;51.474;-2.576;2024-01-07T02:48:37;1.80;75.80
7686;DHT22;3885;51.474;-2.576;2024-01-07T02:53:31;1.90;75.80
7686;DHT22;3885;51.474;-2.576;2024-01-07T03:03:21;2.10;75.70
7686;DHT22;3885;51.474;-2.576;2024-01-07T03:08:15;2.20;75.60
7686;DHT22;3885;51.474;-2.576;2024-01-07T03:10:42;2.20;75.60
7686;DHT22;3885;51.474;-2.576;2024-01-07T03:20:32;2.50;75.40
7686;DHT22;3885;51.474;-2.576;2024-01-07T03:23:00;2.60;75.40
7686;DHT22;3885;51.474;-2.576;2024-01-07T03:25:27;2.70;75.30
7686;DHT22;3885;51.474;-2.576;2024-01-07T03:30:21;2.90;75.20
7686;DHT22;3885;51.474;-2.576;2024-01-07T03:32:49;3.00;75.10
7686;DHT22;3885;51.474;-2.576;2024-01-07T03:37:43;3.10;75.00
7686;DHT22;3885;51.474;-2.576;2024-01-07T03:42:38;3.20;75.00
7686;DHT22;3885;51.474;-2.576;2024-01-07T03:47:32;3.30;74.90
7686;DHT22;3885;51.474;-2.576;2024-01-07T03:50:01;3.40;74.90
7686;DHT22;3885;51.474;-2.576;2024-01-07T03:54:55;3.40;74.90
7686;DHT22;3885;51.474;-2.576;2024-01-07T03:59:49;3.50;74.80
7686;DHT22;3885;51.474;-2.576;2024-01-07T04:04:43;3.60;74.70
7686;DHT22;3885;51.474;-2.576;2024-01-07T04:07:12;3.60;74.70
7686;DHT22;3885;51.474;-2.576;2024-01-07T04:12:06;3.70;74.60
7686;DHT22;3885;51.474;-2.576;2024-01-07T04:17:00;3.80;74.60
7686;DHT22;3885;51.474;-2.576;2024-01-07T04:21:54;3.80;74.60
7686;DHT22;3885;51.474;-2.576;2024-01-07T04:24:22;3.80;74.60
7686;DHT22;3885;51.474;-2.576;2024-01-07T04:29:16;3.80;74.60
7686;DHT22;3885;51.474;-2.576;2024-01-07T04:31:43;3.80;74.60
7686;DHT22;3885;51.474;-2.576;2024-01-07T04:36:37;3.80;74.60
7686;DHT22;3885;51.474;-2.576;2024-01-07T04:41:33;3.80;74.60
